Terminal Aerodrome Forecast
Issued by NWS

Home | Current Version | Previous Version | Text Only | Print | Product List | Glossary On
Versions: 1 2 3 4 5 6 7 8 9 10 11 12
640
FTUS45 KVEF 180520
TAFDAG
TAF
KDAG 180520Z 1806/1906 25008KT P6SM SKC
     FM181100 23014KT P6SM SKC
     FM181600 23023G32KT P6SM SKC
     FM182100 24029G43KT P6SM SKC=

USA.gov is the U.S. government's official web portal to all federal, state and local government web resources and services.